createdAt,value
2022-11-09T00:01:02.307Z,14.81
2022-11-09T00:03:31.258Z,14.82
2022-11-09T00:06:00.191Z,14.90
2022-11-09T00:08:28.565Z,14.88
2022-11-09T00:10:56.749Z,14.90
2022-11-09T00:13:24.296Z,14.91
2022-11-09T00:15:51.900Z,14.92
2022-11-09T00:18:20.211Z,14.91
2022-11-09T00:20:49.137Z,14.96
2022-11-09T00:23:18.417Z,15.01
2022-11-09T00:25:47.392Z,14.98
2022-11-09T00:28:15.375Z,15.00
2022-11-09T00:30:43.176Z,14.99
2022-11-09T00:33:12.093Z,15.02
2022-11-09T00:35:40.312Z,15.02
2022-11-09T00:38:09.321Z,15.02
2022-11-09T00:40:39.228Z,15.05
2022-11-09T00:43:06.810Z,15.06
2022-11-09T00:45:34.342Z,15.05
2022-11-09T00:48:05.097Z,15.06
2022-11-09T00:50:32.628Z,15.10
2022-11-09T00:53:00.332Z,15.08
2022-11-09T00:55:29.243Z,15.11
2022-11-09T00:57:57.524Z,15.10
2022-11-09T01:00:25.647Z,15.09
2022-11-09T01:02:54.477Z,15.10
2022-11-09T01:05:22.095Z,15.09
2022-11-09T01:07:50.709Z,15.09
2022-11-09T01:10:19.137Z,15.09
2022-11-09T01:12:50.051Z,15.07
2022-11-09T01:15:19.815Z,15.07
2022-11-09T01:17:47.657Z,15.04
2022-11-09T01:20:18.666Z,15.01
2022-11-09T01:22:47.208Z,14.99
2022-11-09T01:25:15.385Z,14.99
2022-11-09T01:27:43.224Z,15.01
2022-11-09T01:30:13.627Z,14.98
2022-11-09T01:32:41.345Z,14.96
2022-11-09T01:35:09.743Z,14.94
2022-11-09T01:37:40.151Z,14.89
2022-11-09T01:40:12.811Z,14.86
2022-11-09T01:42:41.579Z,14.84
2022-11-09T01:45:31.197Z,14.80
2022-11-09T01:48:04.549Z,14.77
2022-11-09T01:50:43.135Z,14.77
2022-11-09T01:53:42.686Z,14.72
2022-11-09T01:56:13.979Z,14.67
2022-11-09T01:58:48.615Z,14.64
2022-11-09T02:01:20.319Z,14.62
2022-11-09T02:03:55.451Z,14.60
2022-11-09T02:06:28.195Z,14.61
2022-11-09T02:09:02.180Z,14.60
2022-11-09T02:11:32.136Z,14.55
2022-11-09T02:14:01.903Z,14.54
2022-11-09T02:16:31.285Z,14.51
2022-11-09T02:19:01.237Z,14.49
2022-11-09T02:21:34.267Z,14.46
2022-11-09T02:24:02.200Z,14.49
2022-11-09T02:26:34.377Z,14.43
2022-11-09T02:29:08.207Z,14.39
2022-11-09T02:31:40.204Z,14.37
2022-11-09T02:34:11.144Z,14.39
2022-11-09T02:36:40.250Z,14.34
2022-11-09T02:39:16.240Z,14.32
2022-11-09T02:41:49.252Z,14.30
2022-11-09T02:44:21.123Z,14.26
2022-11-09T02:46:48.793Z,14.27
2022-11-09T02:49:16.918Z,14.24
2022-11-09T02:51:45.833Z,14.22
2022-11-09T02:54:17.155Z,14.26
2022-11-09T02:56:46.580Z,14.22
2022-11-09T02:59:14.583Z,14.20
2022-11-09T03:01:43.280Z,14.22
2022-11-09T03:04:12.491Z,14.21
2022-11-09T03:06:40.102Z,14.16
2022-11-09T03:09:16.508Z,14.13
2022-11-09T03:11:46.229Z,14.13
2022-11-09T03:14:19.497Z,14.13
2022-11-09T03:16:51.302Z,14.09
2022-11-09T03:19:20.017Z,14.13
2022-11-09T03:21:51.261Z,14.11
2022-11-09T03:24:24.891Z,14.06
2022-11-09T03:26:57.227Z,14.05
2022-11-09T03:29:27.236Z,14.02
2022-11-09T03:31:56.280Z,14.01
2022-11-09T03:34:24.618Z,14.03
2022-11-09T03:36:55.118Z,13.99
2022-11-09T03:39:25.253Z,13.97
2022-11-09T03:41:54.178Z,13.98
2022-11-09T03:47:14.716Z,13.97
2022-11-09T03:49:42.321Z,13.98
2022-11-09T03:52:10.655Z,13.94
2022-11-09T03:54:40.325Z,13.96
2022-11-09T03:57:09.214Z,13.93
2022-11-09T03:59:37.430Z,13.95
2022-11-09T04:02:05.240Z,13.94
2022-11-09T04:04:34.539Z,13.93
2022-11-09T04:07:02.254Z,13.97
2022-11-09T04:09:31.227Z,13.99
2022-11-09T04:12:00.976Z,13.99
2022-11-09T04:14:28.615Z,13.97
2022-11-09T04:16:56.211Z,13.99
2022-11-09T04:19:24.225Z,14.00
2022-11-09T04:21:52.144Z,14.00
2022-11-09T04:24:19.810Z,14.05
2022-11-09T04:26:48.244Z,14.07
2022-11-09T04:29:18.050Z,14.06
2022-11-09T04:31:49.200Z,14.09
2022-11-09T04:34:17.259Z,14.11
2022-11-09T04:36:46.074Z,14.12
2022-11-09T04:39:13.833Z,14.12
2022-11-09T04:41:41.566Z,14.09
2022-11-09T04:44:09.493Z,14.11
2022-11-09T04:46:40.856Z,14.13
2022-11-09T04:49:08.850Z,14.11
2022-11-09T04:51:36.421Z,14.12
2022-11-09T04:54:04.126Z,14.12
2022-11-09T04:56:32.603Z,14.12
2022-11-09T04:59:00.626Z,14.11
2022-11-09T05:01:28.279Z,14.11
2022-11-09T05:03:58.005Z,14.15
2022-11-09T05:06:35.213Z,14.10
2022-11-09T05:09:05.783Z,14.12
2022-11-09T05:11:34.178Z,14.12
2022-11-09T05:14:02.210Z,14.12
2022-11-09T05:16:31.996Z,14.15
2022-11-09T05:19:00.939Z,14.16
2022-11-09T05:21:28.551Z,14.13
2022-11-09T05:24:00.151Z,14.21
2022-11-09T05:26:29.521Z,14.23
2022-11-09T05:28:58.944Z,14.26
2022-11-09T05:31:28.093Z,14.24
2022-11-09T05:33:57.210Z,14.25
2022-11-09T05:36:27.763Z,14.31
2022-11-09T05:38:57.150Z,14.33
2022-11-09T05:41:26.228Z,14.32
2022-11-09T05:43:54.812Z,14.37
2022-11-09T05:46:22.517Z,14.38
2022-11-09T05:48:50.545Z,14.38
2022-11-09T05:51:18.166Z,14.40
2022-11-09T05:53:48.023Z,14.41
2022-11-09T05:56:16.212Z,14.40
2022-11-09T05:58:44.283Z,14.41
2022-11-09T06:01:37.757Z,14.40
2022-11-09T06:04:06.274Z,14.39
2022-11-09T06:06:33.960Z,14.44
2022-11-09T06:09:02.933Z,14.41
2022-11-09T06:11:30.664Z,14.33
2022-11-09T06:13:58.213Z,14.16
2022-11-09T06:16:28.169Z,13.99
2022-11-09T06:18:58.562Z,13.87
2022-11-09T06:21:29.562Z,13.78
2022-11-09T06:23:57.662Z,13.69
2022-11-09T06:26:27.180Z,13.60
2022-11-09T06:28:56.181Z,13.54
2022-11-09T06:31:23.856Z,13.49
2022-11-09T06:33:53.174Z,13.42
2022-11-09T06:36:21.111Z,13.39
2022-11-09T06:38:49.832Z,13.32
2022-11-09T06:41:17.945Z,13.27
2022-11-09T06:43:46.903Z,13.23
2022-11-09T06:46:17.256Z,13.21
2022-11-09T06:48:44.962Z,13.17
2022-11-09T06:51:13.214Z,13.09
2022-11-09T06:53:41.395Z,13.04
2022-11-09T06:56:10.262Z,13.02
2022-11-09T06:58:41.161Z,12.96
2022-11-09T07:01:14.343Z,12.92
2022-11-09T07:03:42.002Z,12.91
2022-11-09T07:06:11.776Z,12.87
2022-11-09T07:08:39.775Z,12.85
2022-11-09T07:11:09.169Z,12.80
2022-11-09T07:13:36.799Z,12.80
2022-11-09T07:16:04.869Z,12.73
2022-11-09T07:18:34.396Z,12.71
2022-11-09T07:21:07.726Z,12.67
2022-11-09T07:23:39.172Z,12.64
2022-11-09T07:26:06.905Z,12.63
2022-11-09T07:28:35.160Z,12.59
2022-11-09T07:31:03.076Z,12.56
2022-11-09T07:33:33.354Z,12.52
2022-11-09T07:36:05.038Z,12.49
2022-11-09T07:38:36.558Z,12.46
2022-11-09T07:41:07.235Z,12.43
2022-11-09T07:43:35.544Z,12.43
2022-11-09T07:48:57.331Z,12.40
2022-11-09T07:51:28.181Z,12.39
2022-11-09T07:53:55.736Z,12.42
2022-11-09T07:56:23.294Z,12.40
2022-11-09T07:58:51.601Z,12.41
2022-11-09T08:01:19.219Z,12.41
2022-11-09T08:03:47.626Z,12.47
2022-11-09T08:06:18.383Z,12.42
2022-11-09T08:08:49.409Z,12.40
2022-11-09T08:11:18.561Z,12.41
2022-11-09T08:13:46.354Z,12.40
2022-11-09T08:16:15.175Z,12.40
2022-11-09T08:18:43.246Z,12.41
2022-11-09T08:21:10.901Z,12.45
2022-11-09T08:23:42.239Z,12.47
2022-11-09T08:26:14.173Z,12.51
2022-11-09T08:28:41.715Z,12.53
2022-11-09T08:31:09.759Z,12.57
2022-11-09T08:33:41.188Z,12.60
2022-11-09T08:36:13.053Z,12.65
2022-11-09T08:38:41.280Z,12.69
2022-11-09T08:41:13.380Z,12.75
2022-11-09T08:43:45.375Z,12.81
2022-11-09T08:46:12.952Z,12.83
2022-11-09T08:48:40.649Z,12.86
2022-11-09T08:51:08.416Z,12.90
2022-11-09T08:53:39.672Z,12.95
2022-11-09T08:56:09.654Z,13.00
2022-11-09T08:58:37.771Z,13.01
2022-11-09T09:01:15.341Z,13.07
2022-11-09T09:03:45.460Z,13.10
2022-11-09T09:06:13.164Z,13.15
2022-11-09T09:08:42.144Z,13.21
2022-11-09T09:11:10.365Z,13.29
2022-11-09T09:13:43.357Z,13.33
2022-11-09T09:16:15.260Z,13.35
2022-11-09T09:18:43.243Z,13.44
2022-11-09T09:21:11.804Z,13.49
2022-11-09T09:23:39.548Z,13.50
2022-11-09T09:26:09.179Z,13.55
2022-11-09T09:28:37.301Z,13.60
2022-11-09T09:31:05.870Z,13.64
2022-11-09T09:33:34.887Z,13.67
2022-11-09T09:36:03.792Z,13.71
2022-11-09T09:38:35.177Z,13.78
2022-11-09T09:41:05.047Z,13.79
2022-11-09T09:43:42.551Z,13.86
2022-11-09T09:46:18.778Z,13.85
2022-11-09T09:48:51.602Z,13.89
2022-11-09T09:51:26.227Z,13.88
2022-11-09T09:54:04.473Z,13.92
2022-11-09T09:56:35.424Z,13.94
2022-11-09T09:59:16.042Z,13.98
2022-11-09T10:01:45.767Z,14.07
2022-11-09T10:04:20.221Z,14.15
2022-11-09T10:07:04.438Z,14.21
2022-11-09T10:09:51.192Z,14.22
2022-11-09T10:12:25.691Z,14.30
2022-11-09T10:15:10.249Z,14.40
2022-11-09T10:17:45.514Z,14.47
2022-11-09T10:20:39.649Z,14.52
2022-11-09T10:23:23.749Z,14.58
2022-11-09T10:26:06.883Z,14.66
2022-11-09T10:29:09.662Z,14.73
2022-11-09T10:31:33.632Z,14.76
2022-11-09T10:34:09.131Z,14.82
2022-11-09T10:36:45.343Z,14.85
2022-11-09T10:39:16.087Z,14.79
2022-11-09T10:42:02.224Z,14.83
2022-11-09T10:44:49.172Z,14.82
2022-11-09T10:47:49.088Z,14.86
2022-11-09T10:50:38.432Z,14.91
2022-11-09T10:53:28.582Z,14.94
2022-11-09T10:56:21.142Z,15.02
2022-11-09T10:59:40.808Z,15.11
2022-11-09T11:02:45.145Z,15.22
2022-11-09T11:05:35.082Z,15.15
2022-11-09T11:08:27.299Z,15.16
2022-11-09T11:11:38.043Z,15.22
2022-11-09T11:14:31.272Z,15.23
2022-11-09T11:17:26.435Z,15.29
2022-11-09T11:20:29.522Z,15.40
2022-11-09T11:23:18.470Z,15.50
2022-11-09T11:26:30.258Z,15.53
2022-11-09T11:29:31.790Z,15.54
2022-11-09T11:32:21.516Z,15.59
2022-11-09T11:35:15.301Z,15.53
2022-11-09T11:38:16.653Z,15.57
2022-11-09T11:41:20.210Z,15.54
2022-11-09T11:44:17.223Z,15.60
2022-11-09T11:47:16.677Z,15.56
2022-11-09T11:50:24.556Z,15.53
2022-11-09T11:53:43.060Z,15.58
2022-11-09T11:56:34.384Z,15.47
2022-11-09T11:59:56.203Z,15.52
2022-11-09T12:03:10.806Z,15.45
2022-11-09T12:06:21.713Z,15.48
2022-11-09T12:09:31.287Z,15.49
2022-11-09T12:12:27.043Z,15.53
2022-11-09T12:15:27.289Z,15.50
2022-11-09T12:18:28.299Z,15.53
2022-11-09T12:21:18.070Z,15.44
2022-11-09T12:24:18.780Z,15.41
2022-11-09T12:27:32.214Z,15.38
2022-11-09T12:30:21.896Z,15.38
2022-11-09T12:33:13.008Z,15.34
2022-11-09T12:36:05.062Z,15.30
2022-11-09T12:39:01.285Z,15.28
2022-11-09T12:41:51.232Z,15.20
2022-11-09T12:44:44.473Z,15.23
2022-11-09T12:47:40.197Z,15.20
2022-11-09T12:50:29.113Z,15.19
2022-11-09T12:53:17.556Z,15.22
2022-11-09T12:56:09.026Z,15.21
2022-11-09T12:59:20.630Z,15.27
2022-11-09T13:02:25.281Z,15.22
2022-11-09T13:05:30.800Z,15.25
2022-11-09T13:08:26.062Z,15.34
2022-11-09T13:11:20.983Z,15.29
2022-11-09T13:14:37.221Z,15.20
2022-11-09T13:18:02.755Z,15.15
2022-11-09T13:20:55.994Z,15.19
2022-11-09T13:24:03.386Z,15.18
2022-11-09T13:27:01.305Z,15.17
2022-11-09T13:29:56.263Z,15.12
2022-11-09T13:33:24.717Z,15.25
2022-11-09T13:36:17.610Z,15.06
2022-11-09T13:39:33.199Z,15.04
2022-11-09T13:42:27.746Z,15.03
2022-11-09T13:45:33.911Z,15.10
2022-11-09T13:48:53.087Z,15.14
2022-11-09T13:51:46.208Z,15.10
2022-11-09T13:54:34.448Z,15.01
2022-11-09T13:57:23.298Z,14.95
2022-11-09T14:00:19.562Z,14.91
2022-11-09T14:03:18.786Z,14.89
2022-11-09T14:06:06.796Z,14.92
2022-11-09T14:08:53.410Z,14.90
2022-11-09T14:11:54.228Z,14.91
2022-11-09T14:15:02.706Z,14.89
2022-11-09T14:18:00.266Z,14.86
2022-11-09T14:20:54.340Z,14.81
2022-11-09T14:23:42.527Z,14.74
2022-11-09T14:26:31.300Z,14.78
2022-11-09T14:29:22.387Z,14.71
2022-11-09T14:32:24.788Z,14.70
2022-11-09T14:35:12.569Z,14.61
2022-11-09T14:38:03.287Z,14.59
2022-11-09T14:40:54.641Z,14.56
2022-11-09T14:43:44.923Z,14.55
2022-11-09T14:46:32.584Z,14.52
2022-11-09T14:49:18.919Z,14.47
2022-11-09T14:52:06.250Z,14.52
2022-11-09T14:54:53.615Z,14.44
2022-11-09T14:57:41.955Z,14.46
2022-11-09T15:00:31.360Z,14.44
2022-11-09T15:03:24.251Z,14.46
2022-11-09T15:06:12.423Z,14.41
2022-11-09T15:09:01.024Z,14.40
2022-11-09T15:11:48.133Z,14.36
2022-11-09T15:14:36.394Z,14.31
2022-11-09T15:17:27.096Z,14.29
2022-11-09T15:20:31.242Z,14.32
2022-11-09T15:23:37.664Z,14.23
2022-11-09T15:26:29.892Z,14.23
2022-11-09T15:29:36.438Z,14.19
2022-11-09T15:32:25.194Z,14.16
2022-11-09T15:35:18.333Z,14.15
2022-11-09T15:38:05.204Z,14.11
2022-11-09T15:40:51.305Z,14.06
2022-11-09T15:43:37.534Z,14.11
2022-11-09T15:46:27.379Z,13.99
2022-11-09T15:49:20.356Z,13.90
2022-11-09T15:52:32.800Z,13.90
2022-11-09T15:55:22.554Z,13.86
2022-11-09T15:58:14.262Z,13.82
2022-11-09T16:01:00.329Z,13.74
2022-11-09T16:03:46.488Z,13.68
2022-11-09T16:06:35.873Z,13.68
2022-11-09T16:09:22.207Z,13.65
2022-11-09T16:12:11.667Z,13.57
2022-11-09T16:14:57.544Z,13.53
2022-11-09T16:17:43.545Z,13.52
2022-11-09T16:20:30.417Z,13.50
2022-11-09T16:23:18.664Z,13.41
2022-11-09T16:26:06.632Z,13.40
2022-11-09T16:28:52.960Z,13.34
2022-11-09T16:31:54.873Z,13.34
2022-11-09T16:34:40.853Z,13.27
2022-11-09T16:37:30.101Z,13.27
2022-11-09T16:40:19.225Z,13.27
2022-11-09T16:43:05.394Z,13.28
2022-11-09T16:45:51.429Z,13.25
2022-11-09T16:48:39.658Z,13.21
2022-11-09T16:51:25.929Z,13.16
2022-11-09T16:54:12.359Z,13.16
2022-11-09T16:57:00.614Z,13.19
2022-11-09T16:59:47.200Z,13.15
2022-11-09T17:02:34.272Z,13.12
2022-11-09T17:05:21.810Z,13.11
2022-11-09T17:08:09.260Z,13.10
2022-11-09T17:10:55.358Z,13.05
2022-11-09T17:13:43.296Z,13.01
2022-11-09T17:16:30.680Z,13.00
2022-11-09T17:19:16.597Z,12.96
2022-11-09T17:22:03.850Z,12.93
2022-11-09T17:24:50.145Z,12.88
2022-11-09T17:27:38.526Z,12.88
2022-11-09T17:30:26.055Z,12.86
2022-11-09T17:33:13.631Z,12.87
2022-11-09T17:36:01.176Z,12.77
2022-11-09T17:38:47.453Z,12.77
2022-11-09T17:41:38.701Z,12.75
2022-11-09T17:44:27.606Z,12.72
2022-11-09T17:47:16.318Z,12.67
2022-11-09T17:50:02.576Z,12.65
2022-11-09T17:52:48.877Z,12.64
2022-11-09T17:55:37.979Z,12.61
2022-11-09T17:58:27.172Z,12.64
2022-11-09T18:01:16.197Z,12.57
2022-11-09T18:04:06.676Z,12.57
2022-11-09T18:06:53.027Z,12.56
2022-11-09T18:09:42.089Z,12.57
2022-11-09T18:12:28.951Z,12.52
2022-11-09T18:15:15.512Z,12.53
2022-11-09T18:18:02.273Z,12.49
2022-11-09T18:20:49.924Z,12.48
2022-11-09T18:23:37.023Z,12.45
2022-11-09T18:26:23.309Z,12.44
2022-11-09T18:29:10.237Z,12.40
2022-11-09T18:31:56.491Z,12.36
2022-11-09T18:34:43.232Z,12.33
2022-11-09T18:37:34.573Z,12.31
2022-11-09T18:40:20.726Z,12.31
2022-11-09T18:43:06.760Z,12.27
2022-11-09T18:45:57.482Z,12.25
2022-11-09T18:48:43.947Z,12.22
2022-11-09T18:51:30.395Z,12.18
2022-11-09T18:54:19.111Z,12.17
2022-11-09T18:57:05.839Z,12.17
2022-11-09T18:59:52.629Z,12.18
2022-11-09T19:02:39.556Z,12.11
2022-11-09T19:05:26.152Z,12.10
2022-11-09T19:08:13.465Z,12.10
2022-11-09T19:11:06.296Z,12.08
2022-11-09T19:13:54.590Z,12.08
2022-11-09T19:16:40.812Z,12.07
2022-11-09T19:19:27.199Z,12.06
2022-11-09T19:22:17.575Z,12.06
2022-11-09T19:25:05.222Z,12.03
2022-11-09T19:27:53.332Z,12.05
2022-11-09T19:30:39.771Z,12.03
2022-11-09T19:33:26.282Z,12.07
2022-11-09T19:36:29.673Z,12.03
2022-11-09T19:39:17.563Z,12.01
2022-11-09T19:42:03.978Z,11.99
2022-11-09T19:44:56.212Z,11.98
2022-11-09T19:47:43.171Z,11.95
2022-11-09T19:50:29.170Z,11.92
2022-11-09T19:53:19.229Z,11.92
2022-11-09T19:56:08.481Z,11.95
2022-11-09T19:58:56.461Z,11.98
2022-11-09T20:01:44.340Z,12.00
2022-11-09T20:04:33.048Z,11.95
2022-11-09T20:07:20.602Z,11.92
2022-11-09T20:10:09.226Z,11.93
2022-11-09T20:12:56.572Z,11.89
2022-11-09T20:15:43.264Z,11.84
2022-11-09T20:18:30.777Z,11.83
2022-11-09T20:21:16.783Z,11.81
2022-11-09T20:24:03.120Z,11.84
2022-11-09T20:26:49.580Z,11.82
2022-11-09T20:29:35.537Z,11.78
2022-11-09T20:32:25.228Z,11.83
2022-11-09T20:35:16.487Z,11.78
2022-11-09T20:38:03.050Z,11.76
2022-11-09T20:40:54.377Z,11.73
2022-11-09T20:43:41.233Z,11.71
2022-11-09T20:46:32.670Z,11.70
2022-11-09T20:49:22.205Z,11.68
2022-11-09T20:52:12.948Z,11.67
2022-11-09T20:54:59.237Z,11.65
2022-11-09T20:57:45.314Z,11.66
2022-11-09T21:00:38.235Z,11.64
2022-11-09T21:03:25.514Z,11.65
2022-11-09T21:06:14.355Z,11.65
2022-11-09T21:09:04.557Z,11.63
2022-11-09T21:12:08.917Z,11.63
2022-11-09T21:14:59.284Z,11.58
2022-11-09T21:17:51.333Z,11.56
2022-11-09T21:20:37.822Z,11.55
2022-11-09T21:23:41.472Z,11.54
2022-11-09T21:26:47.878Z,11.52
2022-11-09T21:29:52.234Z,11.49
2022-11-09T21:32:40.309Z,11.50
2022-11-09T21:35:26.365Z,11.48
2022-11-09T21:38:12.618Z,11.46
2022-11-09T21:41:21.303Z,11.45
2022-11-09T21:44:10.585Z,11.42
2022-11-09T21:46:57.025Z,11.40
2022-11-09T21:49:43.649Z,11.41
2022-11-09T21:52:30.409Z,11.39
2022-11-09T21:55:17.749Z,11.37
2022-11-09T21:58:04.426Z,11.34
2022-11-09T22:00:52.242Z,11.31
2022-11-09T22:03:39.664Z,11.29
2022-11-09T22:06:28.446Z,11.27
2022-11-09T22:09:16.799Z,11.25
2022-11-09T22:12:22.236Z,11.21
2022-11-09T22:15:28.107Z,11.18
2022-11-09T22:18:36.316Z,11.16
2022-11-09T22:21:23.737Z,11.13
2022-11-09T22:24:10.816Z,11.08
2022-11-09T22:26:57.856Z,11.02
2022-11-09T22:29:43.897Z,11.02
2022-11-09T22:32:31.630Z,11.01
2022-11-09T22:35:19.383Z,10.98
2022-11-09T22:38:06.791Z,10.95
2022-11-09T22:40:54.697Z,10.91
2022-11-09T22:43:42.368Z,10.88
2022-11-09T22:46:29.070Z,10.86
2022-11-09T22:49:16.221Z,10.83
2022-11-09T22:52:03.728Z,10.80
2022-11-09T22:54:50.430Z,10.79
2022-11-09T22:57:37.853Z,10.73
2022-11-09T23:00:28.250Z,10.70
2022-11-09T23:03:15.421Z,10.67
2022-11-09T23:06:03.227Z,10.64
2022-11-09T23:08:50.703Z,10.62
2022-11-09T23:11:36.636Z,10.57
2022-11-09T23:14:43.133Z,10.55
2022-11-09T23:17:47.147Z,10.51
2022-11-09T23:20:35.825Z,10.50
2022-11-09T23:23:22.394Z,10.45
2022-11-09T23:26:11.136Z,10.43
2022-11-09T23:28:57.466Z,10.40
2022-11-09T23:31:43.689Z,10.38
2022-11-09T23:34:29.710Z,10.33
2022-11-09T23:37:16.607Z,10.32
2022-11-09T23:40:03.045Z,10.30
2022-11-09T23:42:52.011Z,10.26
2022-11-09T23:45:41.350Z,10.24
2022-11-09T23:48:27.686Z,10.22
2022-11-09T23:51:15.321Z,10.19
2022-11-09T23:54:01.349Z,10.18
2022-11-09T23:59:59.916Z,10.11
